sensor_id;sensor_type;location;lat;lon;timestamp;P1;durP1;ratioP1;P2;durP2;ratioP2
27758;SDS011;15148;48.972;12.794;2022-09-13T00:04:32;8.77;;;6.30;;
27758;SDS011;15148;48.972;12.794;2022-09-13T00:09:34;6.55;;;5.95;;
27758;SDS011;15148;48.972;12.794;2022-09-13T00:14:37;6.63;;;5.28;;
27758;SDS011;15148;48.972;12.794;2022-09-13T00:19:39;6.63;;;5.97;;
27758;SDS011;15148;48.972;12.794;2022-09-13T00:24:40;6.93;;;5.70;;
27758;SDS011;15148;48.972;12.794;2022-09-13T00:29:42;7.10;;;5.38;;
27758;SDS011;15148;48.972;12.794;2022-09-13T00:34:44;6.93;;;5.32;;
27758;SDS011;15148;48.972;12.794;2022-09-13T00:39:46;6.13;;;5.43;;
27758;SDS011;15148;48.972;12.794;2022-09-13T00:50:06;6.35;;;5.72;;
27758;SDS011;15148;48.972;12.794;2022-09-13T00:55:20;5.65;;;5.15;;
27758;SDS011;15148;48.972;12.794;2022-09-13T01:00:43;6.53;;;5.57;;
27758;SDS011;15148;48.972;12.794;2022-09-13T01:05:47;5.88;;;5.38;;
27758;SDS011;15148;48.972;12.794;2022-09-13T01:15:57;8.00;;;6.03;;
27758;SDS011;15148;48.972;12.794;2022-09-13T01:37:28;5.90;;;5.38;;
27758;SDS011;15148;48.972;12.794;2022-09-13T01:42:57;8.52;;;5.68;;
27758;SDS011;15148;48.972;12.794;2022-09-13T01:53:19;5.28;;;4.72;;
27758;SDS011;15148;48.972;12.794;2022-09-13T02:04:03;6.13;;;4.60;;
27758;SDS011;15148;48.972;12.794;2022-09-13T02:09:11;5.28;;;4.72;;
27758;SDS011;15148;48.972;12.794;2022-09-13T02:14:24;6.22;;;4.80;;
27758;SDS011;15148;48.972;12.794;2022-09-13T02:19:55;8.43;;;5.43;;
27758;SDS011;15148;48.972;12.794;2022-09-13T02:25:01;5.82;;;5.03;;
27758;SDS011;15148;48.972;12.794;2022-09-13T02:30:08;5.28;;;4.78;;
27758;SDS011;15148;48.972;12.794;2022-09-13T02:40:38;6.00;;;5.20;;
27758;SDS011;15148;48.972;12.794;2022-09-13T02:45:47;8.13;;;5.55;;
27758;SDS011;15148;48.972;12.794;2022-09-13T02:56:23;6.43;;;5.10;;
27758;SDS011;15148;48.972;12.794;2022-09-13T03:06:29;6.13;;;5.22;;
27758;SDS011;15148;48.972;12.794;2022-09-13T03:17:38;6.93;;;5.95;;
27758;SDS011;15148;48.972;12.794;2022-09-13T03:23:01;8.82;;;5.65;;
27758;SDS011;15148;48.972;12.794;2022-09-13T03:28:13;7.18;;;5.97;;
27758;SDS011;15148;48.972;12.794;2022-09-13T03:43:39;7.50;;;6.20;;
27758;SDS011;15148;48.972;12.794;2022-09-13T03:48:42;7.43;;;6.72;;
27758;SDS011;15148;48.972;12.794;2022-09-13T03:53:46;7.40;;;6.70;;
27758;SDS011;15148;48.972;12.794;2022-09-13T03:58:54;7.03;;;6.32;;
27758;SDS011;15148;48.972;12.794;2022-09-13T04:03:55;7.03;;;6.18;;
27758;SDS011;15148;48.972;12.794;2022-09-13T04:08:57;7.35;;;6.65;;
27758;SDS011;15148;48.972;12.794;2022-09-13T04:14:00;8.88;;;7.78;;
27758;SDS011;15148;48.972;12.794;2022-09-13T04:19:03;7.20;;;6.60;;
27758;SDS011;15148;48.972;12.794;2022-09-13T04:24:05;8.15;;;6.68;;
27758;SDS011;15148;48.972;12.794;2022-09-13T04:29:07;10.65;;;6.45;;
27758;SDS011;15148;48.972;12.794;2022-09-13T04:34:09;7.78;;;6.95;;
27758;SDS011;15148;48.972;12.794;2022-09-13T04:39:11;6.88;;;6.28;;
27758;SDS011;15148;48.972;12.794;2022-09-13T04:44:16;7.57;;;6.75;;
27758;SDS011;15148;48.972;12.794;2022-09-13T04:49:18;9.55;;;6.38;;
27758;SDS011;15148;48.972;12.794;2022-09-13T04:54:23;8.13;;;7.28;;
27758;SDS011;15148;48.972;12.794;2022-09-13T04:59:24;7.07;;;6.38;;
27758;SDS011;15148;48.972;12.794;2022-09-13T05:04:26;9.52;;;5.88;;
27758;SDS011;15148;48.972;12.794;2022-09-13T05:09:28;10.10;;;7.10;;
27758;SDS011;15148;48.972;12.794;2022-09-13T05:14:30;7.30;;;6.53;;
27758;SDS011;15148;48.972;12.794;2022-09-13T05:19:32;7.93;;;6.28;;
27758;SDS011;15148;48.972;12.794;2022-09-13T05:24:34;8.45;;;6.45;;
27758;SDS011;15148;48.972;12.794;2022-09-13T05:29:35;7.43;;;6.38;;
27758;SDS011;15148;48.972;12.794;2022-09-13T05:34:37;7.65;;;6.95;;
27758;SDS011;15148;48.972;12.794;2022-09-13T05:39:39;8.45;;;6.65;;
27758;SDS011;15148;48.972;12.794;2022-09-13T05:45:01;6.20;;;5.60;;
27758;SDS011;15148;48.972;12.794;2022-09-13T05:50:03;7.88;;;6.15;;
27758;SDS011;15148;48.972;12.794;2022-09-13T05:55:25;7.75;;;6.70;;
27758;SDS011;15148;48.972;12.794;2022-09-13T06:00:27;8.15;;;6.72;;
27758;SDS011;15148;48.972;12.794;2022-09-13T06:05:29;8.70;;;7.47;;
27758;SDS011;15148;48.972;12.794;2022-09-13T06:10:32;9.07;;;7.68;;
27758;SDS011;15148;48.972;12.794;2022-09-13T06:15:34;7.25;;;6.30;;
27758;SDS011;15148;48.972;12.794;2022-09-13T06:20:41;6.40;;;5.80;;
27758;SDS011;15148;48.972;12.794;2022-09-13T06:25:43;6.97;;;6.28;;
27758;SDS011;15148;48.972;12.794;2022-09-13T06:30:45;6.65;;;6.05;;
27758;SDS011;15148;48.972;12.794;2022-09-13T06:35:47;7.15;;;6.45;;
27758;SDS011;15148;48.972;12.794;2022-09-13T06:40:57;7.15;;;6.47;;
27758;SDS011;15148;48.972;12.794;2022-09-13T06:46:01;7.68;;;6.18;;
27758;SDS011;15148;48.972;12.794;2022-09-13T06:51:06;6.03;;;5.43;;
27758;SDS011;15148;48.972;12.794;2022-09-13T06:56:13;8.35;;;7.20;;
27758;SDS011;15148;48.972;12.794;2022-09-13T07:01:21;6.47;;;5.88;;
27758;SDS011;15148;48.972;12.794;2022-09-13T07:06:26;9.27;;;5.88;;
27758;SDS011;15148;48.972;12.794;2022-09-13T07:11:31;7.32;;;6.63;;
27758;SDS011;15148;48.972;12.794;2022-09-13T07:16:35;11.25;;;8.15;;
27758;SDS011;15148;48.972;12.794;2022-09-13T07:21:38;8.27;;;7.47;;
27758;SDS011;15148;48.972;12.794;2022-09-13T07:26:40;8.35;;;7.55;;
27758;SDS011;15148;48.972;12.794;2022-09-13T07:31:42;8.98;;;8.18;;
27758;SDS011;15148;48.972;12.794;2022-09-13T07:36:48;8.63;;;7.78;;
27758;SDS011;15148;48.972;12.794;2022-09-13T07:41:50;9.43;;;8.43;;
27758;SDS011;15148;48.972;12.794;2022-09-13T07:46:53;8.80;;;7.90;;
27758;SDS011;15148;48.972;12.794;2022-09-13T07:51:55;11.27;;;8.15;;
27758;SDS011;15148;48.972;12.794;2022-09-13T07:56:57;9.48;;;8.57;;
27758;SDS011;15148;48.972;12.794;2022-09-13T08:01:59;10.68;;;9.50;;
27758;SDS011;15148;48.972;12.794;2022-09-13T08:07:00;8.70;;;7.80;;
27758;SDS011;15148;48.972;12.794;2022-09-13T08:12:02;7.90;;;6.90;;
27758;SDS011;15148;48.972;12.794;2022-09-13T08:17:04;8.77;;;7.45;;
27758;SDS011;15148;48.972;12.794;2022-09-13T08:22:06;7.80;;;7.13;;
27758;SDS011;15148;48.972;12.794;2022-09-13T08:27:08;10.90;;;8.48;;
27758;SDS011;15148;48.972;12.794;2022-09-13T08:32:10;8.02;;;7.22;;
27758;SDS011;15148;48.972;12.794;2022-09-13T08:37:12;6.65;;;6.05;;
27758;SDS011;15148;48.972;12.794;2022-09-13T08:52:51;7.97;;;6.30;;
27758;SDS011;15148;48.972;12.794;2022-09-13T08:58:03;7.68;;;6.50;;
27758;SDS011;15148;48.972;12.794;2022-09-13T09:03:20;7.00;;;6.30;;
27758;SDS011;15148;48.972;12.794;2022-09-13T09:13:49;9.70;;;7.93;;
27758;SDS011;15148;48.972;12.794;2022-09-13T09:24:22;6.50;;;5.90;;
27758;SDS011;15148;48.972;12.794;2022-09-13T09:29:26;5.25;;;4.85;;
27758;SDS011;15148;48.972;12.794;2022-09-13T09:34:36;6.17;;;5.63;;
27758;SDS011;15148;48.972;12.794;2022-09-13T09:40:05;6.97;;;6.28;;
27758;SDS011;15148;48.972;12.794;2022-09-13T09:50:36;7.03;;;5.40;;
27758;SDS011;15148;48.972;12.794;2022-09-13T10:00:56;5.00;;;4.60;;
27758;SDS011;15148;48.972;12.794;2022-09-13T10:06:18;6.10;;;5.50;;
27758;SDS011;15148;48.972;12.794;2022-09-13T10:11:22;4.43;;;4.03;;
27758;SDS011;15148;48.972;12.794;2022-09-13T10:16:25;5.32;;;4.18;;
27758;SDS011;15148;48.972;12.794;2022-09-13T10:21:30;5.47;;;4.97;;
27758;SDS011;15148;48.972;12.794;2022-09-13T10:26:31;5.47;;;4.82;;
27758;SDS011;15148;48.972;12.794;2022-09-13T10:31:35;4.60;;;4.20;;
27758;SDS011;15148;48.972;12.794;2022-09-13T10:36:43;5.80;;;4.43;;
27758;SDS011;15148;48.972;12.794;2022-09-13T10:42:10;3.78;;;3.47;;
27758;SDS011;15148;48.972;12.794;2022-09-13T10:47:17;4.15;;;3.80;;
27758;SDS011;15148;48.972;12.794;2022-09-13T10:52:34;4.35;;;3.92;;
27758;SDS011;15148;48.972;12.794;2022-09-13T10:57:42;3.78;;;3.40;;
27758;SDS011;15148;48.972;12.794;2022-09-13T11:14:04;3.80;;;3.50;;
27758;SDS011;15148;48.972;12.794;2022-09-13T11:19:07;4.03;;;3.70;;
27758;SDS011;15148;48.972;12.794;2022-09-13T11:29:52;8.20;;;5.03;;
27758;SDS011;15148;48.972;12.794;2022-09-13T11:45:49;4.28;;;3.88;;
27758;SDS011;15148;48.972;12.794;2022-09-13T11:51:17;4.43;;;4.03;;
27758;SDS011;15148;48.972;12.794;2022-09-13T11:56:30;4.13;;;3.70;;
27758;SDS011;15148;48.972;12.794;2022-09-13T12:01:41;5.30;;;4.10;;
27758;SDS011;15148;48.972;12.794;2022-09-13T12:06:55;4.38;;;3.95;;
27758;SDS011;15148;48.972;12.794;2022-09-13T12:12:05;4.25;;;3.85;;
27758;SDS011;15148;48.972;12.794;2022-09-13T12:17:26;5.55;;;4.40;;
27758;SDS011;15148;48.972;12.794;2022-09-13T12:22:34;5.53;;;4.00;;
27758;SDS011;15148;48.972;12.794;2022-09-13T12:27:45;4.45;;;4.05;;
27758;SDS011;15148;48.972;12.794;2022-09-13T12:32:55;4.57;;;4.18;;
27758;SDS011;15148;48.972;12.794;2022-09-13T12:44:15;4.72;;;4.32;;
27758;SDS011;15148;48.972;12.794;2022-09-13T12:49:12;4.60;;;4.20;;
27758;SDS011;15148;48.972;12.794;2022-09-13T13:05:30;6.18;;;4.28;;
27758;SDS011;15148;48.972;12.794;2022-09-13T13:10:35;4.40;;;4.00;;
27758;SDS011;15148;48.972;12.794;2022-09-13T13:25:56;3.97;;;3.20;;
27758;SDS011;15148;48.972;12.794;2022-09-13T13:31:06;3.97;;;3.58;;
27758;SDS011;15148;48.972;12.794;2022-09-13T13:36:21;3.80;;;3.50;;
27758;SDS011;15148;48.972;12.794;2022-09-13T13:51:35;3.53;;;3.22;;
27758;SDS011;15148;48.972;12.794;2022-09-13T13:56:45;3.97;;;3.67;;
27758;SDS011;15148;48.972;12.794;2022-09-13T14:01:50;3.88;;;3.58;;
27758;SDS011;15148;48.972;12.794;2022-09-13T14:07:04;4.55;;;3.53;;
27758;SDS011;15148;48.972;12.794;2022-09-13T14:12:28;4.70;;;4.30;;
27758;SDS011;15148;48.972;12.794;2022-09-13T14:18:06;4.28;;;3.50;;
27758;SDS011;15148;48.972;12.794;2022-09-13T14:23:16;4.60;;;3.10;;
27758;SDS011;15148;48.972;12.794;2022-09-13T14:28:19;3.97;;;3.45;;
27758;SDS011;15148;48.972;12.794;2022-09-13T14:33:24;4.70;;;3.72;;
27758;SDS011;15148;48.972;12.794;2022-09-13T14:38:32;4.15;;;3.38;;
27758;SDS011;15148;48.972;12.794;2022-09-13T14:43:36;3.13;;;2.85;;
27758;SDS011;15148;48.972;12.794;2022-09-13T14:48:40;3.85;;;3.05;;
27758;SDS011;15148;48.972;12.794;2022-09-13T14:53:47;3.60;;;3.30;;
27758;SDS011;15148;48.972;12.794;2022-09-13T14:59:18;4.53;;;3.70;;
27758;SDS011;15148;48.972;12.794;2022-09-13T15:04:30;3.92;;;3.60;;
27758;SDS011;15148;48.972;12.794;2022-09-13T15:09:32;4.80;;;3.80;;
27758;SDS011;15148;48.972;12.794;2022-09-13T15:14:36;5.60;;;3.47;;
27758;SDS011;15148;48.972;12.794;2022-09-13T15:24:50;4.35;;;3.53;;
27758;SDS011;15148;48.972;12.794;2022-09-13T15:30:01;4.07;;;3.78;;
27758;SDS011;15148;48.972;12.794;2022-09-13T15:35:22;4.03;;;3.72;;
27758;SDS011;15148;48.972;12.794;2022-09-13T15:40:28;5.95;;;3.90;;
27758;SDS011;15148;48.972;12.794;2022-09-13T15:45:40;4.40;;;4.00;;
27758;SDS011;15148;48.972;12.794;2022-09-13T15:50:42;6.00;;;4.88;;
27758;SDS011;15148;48.972;12.794;2022-09-13T15:56:02;5.43;;;4.82;;
27758;SDS011;15148;48.972;12.794;2022-09-13T16:01:05;5.63;;;4.68;;
27758;SDS011;15148;48.972;12.794;2022-09-13T16:06:07;5.55;;;4.00;;
27758;SDS011;15148;48.972;12.794;2022-09-13T16:11:09;4.30;;;3.90;;
27758;SDS011;15148;48.972;12.794;2022-09-13T16:16:12;5.72;;;4.13;;
27758;SDS011;15148;48.972;12.794;2022-09-13T16:21:14;4.18;;;3.65;;
27758;SDS011;15148;48.972;12.794;2022-09-13T16:26:16;3.65;;;3.35;;
27758;SDS011;15148;48.972;12.794;2022-09-13T16:31:18;7.25;;;4.10;;
27758;SDS011;15148;48.972;12.794;2022-09-13T16:36:20;6.55;;;3.95;;
27758;SDS011;15148;48.972;12.794;2022-09-13T16:41:23;3.80;;;3.40;;
27758;SDS011;15148;48.972;12.794;2022-09-13T16:46:24;4.68;;;3.58;;
27758;SDS011;15148;48.972;12.794;2022-09-13T16:51:27;6.60;;;4.70;;
27758;SDS011;15148;48.972;12.794;2022-09-13T16:56:28;6.75;;;4.20;;
27758;SDS011;15148;48.972;12.794;2022-09-13T17:01:31;4.22;;;3.83;;
27758;SDS011;15148;48.972;12.794;2022-09-13T17:06:33;7.28;;;3.78;;
27758;SDS011;15148;48.972;12.794;2022-09-13T17:11:35;6.72;;;3.88;;
27758;SDS011;15148;48.972;12.794;2022-09-13T17:16:40;5.72;;;3.83;;
27758;SDS011;15148;48.972;12.794;2022-09-13T17:21:47;4.35;;;3.35;;
27758;SDS011;15148;48.972;12.794;2022-09-13T17:26:50;3.55;;;3.25;;
27758;SDS011;15148;48.972;12.794;2022-09-13T17:31:51;5.43;;;3.17;;
27758;SDS011;15148;48.972;12.794;2022-09-13T17:36:53;7.97;;;3.47;;
27758;SDS011;15148;48.972;12.794;2022-09-13T17:41:55;7.03;;;3.80;;
27758;SDS011;15148;48.972;12.794;2022-09-13T17:46:58;3.95;;;3.63;;
27758;SDS011;15148;48.972;12.794;2022-09-13T17:51:59;5.60;;;3.60;;
27758;SDS011;15148;48.972;12.794;2022-09-13T17:57:02;4.82;;;3.63;;
27758;SDS011;15148;48.972;12.794;2022-09-13T18:02:04;3.75;;;3.33;;
27758;SDS011;15148;48.972;12.794;2022-09-13T18:07:06;4.68;;;3.33;;
27758;SDS011;15148;48.972;12.794;2022-09-13T18:12:08;6.40;;;3.33;;
27758;SDS011;15148;48.972;12.794;2022-09-13T18:17:10;5.10;;;3.53;;
27758;SDS011;15148;48.972;12.794;2022-09-13T18:22:13;4.70;;;3.17;;
27758;SDS011;15148;48.972;12.794;2022-09-13T18:27:15;3.20;;;2.90;;
27758;SDS011;15148;48.972;12.794;2022-09-13T18:32:17;6.00;;;3.67;;
27758;SDS011;15148;48.972;12.794;2022-09-13T18:37:19;5.35;;;3.30;;
27758;SDS011;15148;48.972;12.794;2022-09-13T18:42:21;3.38;;;3.13;;
27758;SDS011;15148;48.972;12.794;2022-09-13T18:47:23;4.40;;;3.15;;
27758;SDS011;15148;48.972;12.794;2022-09-13T18:52:25;3.25;;;2.85;;
27758;SDS011;15148;48.972;12.794;2022-09-13T18:57:27;4.50;;;3.15;;
27758;SDS011;15148;48.972;12.794;2022-09-13T19:02:29;4.13;;;3.28;;
27758;SDS011;15148;48.972;12.794;2022-09-13T19:07:31;9.38;;;4.25;;
27758;SDS011;15148;48.972;12.794;2022-09-13T19:12:33;5.47;;;3.40;;
27758;SDS011;15148;48.972;12.794;2022-09-13T19:17:35;5.13;;;3.42;;
27758;SDS011;15148;48.972;12.794;2022-09-13T19:22:37;3.88;;;3.15;;
27758;SDS011;15148;48.972;12.794;2022-09-13T19:27:39;5.95;;;3.72;;
27758;SDS011;15148;48.972;12.794;2022-09-13T19:32:42;4.05;;;2.92;;
27758;SDS011;15148;48.972;12.794;2022-09-13T19:37:44;4.13;;;3.72;;
27758;SDS011;15148;48.972;12.794;2022-09-13T19:42:46;6.18;;;3.17;;
27758;SDS011;15148;48.972;12.794;2022-09-13T19:47:48;3.97;;;3.30;;
27758;SDS011;15148;48.972;12.794;2022-09-13T19:53:11;6.38;;;3.35;;
27758;SDS011;15148;48.972;12.794;2022-09-13T19:58:13;3.97;;;2.97;;
27758;SDS011;15148;48.972;12.794;2022-09-13T20:03:16;5.80;;;2.90;;
27758;SDS011;15148;48.972;12.794;2022-09-13T20:08:21;4.57;;;3.17;;
27758;SDS011;15148;48.972;12.794;2022-09-13T20:13:23;5.05;;;3.00;;
27758;SDS011;15148;48.972;12.794;2022-09-13T20:18:29;5.90;;;3.10;;
27758;SDS011;15148;48.972;12.794;2022-09-13T20:23:34;4.15;;;3.20;;
27758;SDS011;15148;48.972;12.794;2022-09-13T20:28:37;3.85;;;3.03;;
27758;SDS011;15148;48.972;12.794;2022-09-13T20:33:40;3.25;;;2.63;;
27758;SDS011;15148;48.972;12.794;2022-09-13T20:38:43;4.35;;;2.85;;
27758;SDS011;15148;48.972;12.794;2022-09-13T20:43:49;3.08;;;2.75;;
27758;SDS011;15148;48.972;12.794;2022-09-13T20:48:51;2.58;;;2.38;;
27758;SDS011;15148;48.972;12.794;2022-09-13T20:53:53;3.67;;;2.58;;
27758;SDS011;15148;48.972;12.794;2022-09-13T20:58:57;5.18;;;2.30;;
27758;SDS011;15148;48.972;12.794;2022-09-13T21:04:01;4.25;;;2.55;;
27758;SDS011;15148;48.972;12.794;2022-09-13T21:09:03;2.85;;;2.60;;
27758;SDS011;15148;48.972;12.794;2022-09-13T21:14:06;3.42;;;2.90;;
27758;SDS011;15148;48.972;12.794;2022-09-13T21:19:09;2.67;;;2.42;;
27758;SDS011;15148;48.972;12.794;2022-09-13T21:24:11;3.60;;;3.03;;
27758;SDS011;15148;48.972;12.794;2022-09-13T21:29:13;4.90;;;2.90;;
27758;SDS011;15148;48.972;12.794;2022-09-13T21:34:16;4.68;;;2.80;;
27758;SDS011;15148;48.972;12.794;2022-09-13T21:39:18;3.42;;;2.88;;
27758;SDS011;15148;48.972;12.794;2022-09-13T21:44:20;3.50;;;3.13;;
27758;SDS011;15148;48.972;12.794;2022-09-13T21:49:22;3.70;;;3.40;;
27758;SDS011;15148;48.972;12.794;2022-09-13T21:54:24;3.83;;;2.80;;
27758;SDS011;15148;48.972;12.794;2022-09-13T21:59:26;3.75;;;3.10;;
27758;SDS011;15148;48.972;12.794;2022-09-13T22:04:28;3.58;;;3.28;;
27758;SDS011;15148;48.972;12.794;2022-09-13T22:09:29;3.58;;;2.90;;
27758;SDS011;15148;48.972;12.794;2022-09-13T22:14:31;4.25;;;2.80;;
27758;SDS011;15148;48.972;12.794;2022-09-13T22:19:33;6.60;;;3.08;;
27758;SDS011;15148;48.972;12.794;2022-09-13T22:24:35;6.10;;;2.92;;
27758;SDS011;15148;48.972;12.794;2022-09-13T22:29:36;5.45;;;2.72;;
27758;SDS011;15148;48.972;12.794;2022-09-13T22:34:38;3.05;;;2.75;;
27758;SDS011;15148;48.972;12.794;2022-09-13T22:39:40;4.63;;;2.63;;
27758;SDS011;15148;48.972;12.794;2022-09-13T22:44:42;4.50;;;3.20;;
27758;SDS011;15148;48.972;12.794;2022-09-13T22:49:44;3.33;;;2.95;;
27758;SDS011;15148;48.972;12.794;2022-09-13T22:54:46;5.18;;;3.22;;
27758;SDS011;15148;48.972;12.794;2022-09-13T22:59:50;5.88;;;3.30;;
27758;SDS011;15148;48.972;12.794;2022-09-13T23:04:52;4.50;;;2.97;;
27758;SDS011;15148;48.972;12.794;2022-09-13T23:09:54;3.55;;;3.25;;
27758;SDS011;15148;48.972;12.794;2022-09-13T23:14:56;4.80;;;2.80;;
27758;SDS011;15148;48.972;12.794;2022-09-13T23:19:58;4.93;;;2.83;;
27758;SDS011;15148;48.972;12.794;2022-09-13T23:24:59;6.65;;;3.05;;
27758;SDS011;15148;48.972;12.794;2022-09-13T23:30:01;4.70;;;3.90;;
27758;SDS011;15148;48.972;12.794;2022-09-13T23:35:05;3.00;;;2.70;;
27758;SDS011;15148;48.972;12.794;2022-09-13T23:40:07;4.07;;;2.95;;
27758;SDS011;15148;48.972;12.794;2022-09-13T23:45:09;5.10;;;3.03;;
27758;SDS011;15148;48.972;12.794;2022-09-13T23:50:12;4.03;;;3.33;;
27758;SDS011;15148;48.972;12.794;2022-09-13T23:55:14;4.35;;;3.00;;
